Página principal
METAR-TAF:

METAR-TAF

Aeroportos :

Aeroporto Internacional do Bahrain

Bahrein, Bahrein

latitude: 26-16N, longitude: 050-39E, altura: 2 m

Observação actual do tempo

O boletim foi feito há 13 minutos, às 15:30 UTC
Vento 12 kt de noroeste
Temperatura 22°C
Humidade 69%
Pressão 1018 hPa
Visibilidade 10 km ou mais
Poucas nuvensa uma altura de 2500 ft

METAR: OBBI 211530Z 32012KT 9999 FEW025 22/16 Q1018 NOSIG

Hora: 18:43 (15:43 UTC)

Previsão

O boletim foi feito há 4 horas e 43 minutos, às 11:00 UTC
Previsão válida de 21 às 12 UTC a 22 às 18 UTC
Vento 13 kt de noroeste
Visibilidade 10 km ou mais
Poucas nuvensa uma altura de 2500 ft
Tornando-se
de 22 às 15 UTC a 22 às 17 UTC
Vento 5 kt com direcção variável

TAF: OBBI 211100Z 2112/2218 32013KT 9999 FEW025 BECMG 2215/2217 VRB05KT

Observações e previsões do tempo de mais de 4000 aeroportos (mensagens METAR e TAF).

As estações disponíveis são os pontos amarelos e vermelhos sobre o mapa.

Mova o rato sobre o mapa para ver o nome da estação.

Depois clique no ponto para visualizar as observações e previsões meteorológicas.

Para alterar o mapa : clique nos botões verdes com uma cruz preta para aumentar o zoom; no botão verde com uma pitada de zoom; ou nas setas verdes para mapas adjacentes.


METAR-TAF: